zaterdag 21 april 2018 | Home | Bestenlijsten | Nieuws | Uitslagen | Videos | Wedstrijden | VZA Ranglijsten | Weer |
 
 
Recent nieuws meer nieuws
09-04: Gezocht: gunstige dag voor marathon
19-03: Progressie boeken als hardloper
18-03: Jubileumeditie Zwinstedenloop prooi voor Diaz Rodriguez
10-03: Leonie Ton pakt Nederlands record op 100 km terug
05-03: Yunis Stitan en Monica Sanderse de sterksten in Kustcross
19-02: Terugblik op Kapelleloop 2018
Wedstrijdagenda meer wedstrijden
za 21-04: 10e Marathon Zeeuws-Vlaanderen Hulst
zo 22-04: Antwerp 10 Miles & Marathon Antwerpen
zo 22-04: 7e Zwaakse Weel loop Kwadendamme
vr 27-04: 43e Omloop van Menheerse Middelharnis
za 28-04: 13e Ropakustrun Dishoek
za 05-05: Vrijgezellenloop Vlissingen
zo 06-05: Worstel en kom boven loop Wolphaartsdijk
vr 11-05: Track Meeting Utrecht
za 12-05: 22e Meidoornloop Nisse
vr 18-05: 18e Stadsloop Middelburg
za 19-05: Ter Specke Bokaal Lisse
ma 21-05: Pinksterwedstrijd Hulst
vr 25-05: 7e Schellachloop Middelburg
za 26-05: 9e IFAM Outdoor Oordegem
Recente uitslagen meer uitslagen
za 21-04: 10e Marathon Zeeuws-Vlaanderen Hulst
vr 20-04: 7e Oranjemuidenloop Arnemuiden
za 07-04: Sluitingsprijs SSP Westdorpe (84)
za 07-04: 12e Oosterscheldeloop Goes (185)
ma 02-04: Paas Kustloop Breskens (77)
za 31-03: 25 km van Hulst (186)
za 31-03: Vrijburgloop Vlissingen (85)
za 24-03: 7e Ronde van BRU Bruinisse (127)
za 24-03: 2e Dow trimloop Terneuzen (62)
zo 18-03: 25e Zwinstedenloop Sluis (307)
za 17-03: 51e Massaloop Oostkapelle (95)
zo 11-03: 4e Natuurloop Cadzand-Bad (55)
za 10-03: 46e Pannekoekloop Westenschouwen (240)
za 10-03: Corn Boys Loop Sas van Gent (91)
 
Zoek tenminste met 3 tekens van wedstrijd, datum, plaats of atleet
Kreekloop
Terneuzen, woensdag 30 augustus 2017 - Organisatie: Scheldesport
9.6 km
PltsNaam
Tijdkm/umin/km
1  Mark VerhageZaamslag33.22Mse   17.263  3:29
2  Erwin van den BroekeAxel35.20M35   16.302  3:41
3  Sander van DoornTerneuzen35.54Mse   16.045  3:44
4  Erik GoossenTerneuzen36.14M45   15.897  3:46
5  Martijn KoxWestdorpe37.05M35   15.533  3:52
6  Lorenzo d'HontKoewacht38.49Mse   14.839  4:03
7  Leo BrackeAxel39.10M50   14.706  4:05
8  Adriaan WielesTerneuzen39.21M45   14.638  4:06
9  Endy SlockAxel39.25M40   14.613  4:06
10  Ben van VlietTerneuzen39.27M40   14.601  4:07
11  Allan van AltenAxel39.35M40   14.552  4:07
12  Michael den HamerHoek39.43M40   14.503  4:08
13  Stefan van den BroekeAxel39.54Mse   14.436  4:09
14  Evert KuijkTerneuzen40.19M50   14.287  4:12
15  Marlon RoelsTerneuzen40.22M45   14.269  4:12
16  Thomas WulffraatTerneuzen40.39M35   14.170  4:14
17  Erik BollemanAxel41.27M45   13.896  4:19
18  Alwin de ZeeuwTerneuzen41.42M45   13.813  4:21
19  Bas JasperseTerneuzen41.56M45   13.736  4:22
20  Menno den DekkerTerneuzen42.21M45   13.601  4:25
21  Marnix Van den BrandeClinge42.25Mse   13.580  4:25
22  Niek WielandAxel43.57M40   13.106  4:35
23  Harold de MaatTerneuzen44.08M45   13.051  4:36
24  Jochem de DijckerAxel44.21M35   12.988  4:37
25  Ebe BlaauwTerneuzen44.26M60   12.963  4:38
26  Peter van den BergHulst44.30M50   12.944  4:38
27  Berry KnibbelerWestdorpe44.33M55   12.929  4:38
28  Leon van BavinchovenTerneuzen44.59M45   12.805  4:41
29  Bart van JoleTerneuzen45.39M35   12.618  4:45
30  Rudi de CaluweSas van Gent45.43M55   12.599  4:46
31  Astrid VerhageZuiddorpe45.47V35   12.581  4:46
32  Patrick DobbelaarHoek45.48M50   12.576  4:46
33  Martin de JaegerTerneuzen46.03M45   12.508  4:48
34  Jos de KreekVogelwaarde46.04M50   12.504  4:48
35  Fiona ReijersTerneuzen46.17V40   12.445  4:49
36  Josa van der VlietTerneuzen46.18V50   12.441  4:49
37  Inge de BooijGraauw46.21Vse   12.427  4:50
38  Aschwin RoegiersTerneuzen46.27M45   12.400  4:50
39  Corine de JongeTerneuzen46.28Vse   12.396  4:50
40  Natasja BooijWalsoorden46.35V40   12.365  4:51
41  Coen KaijserTerneuzen47.01Mse   12.251  4:54
42  Jan BoonmanAxel47.10M65   12.212  4:55
43  Piet PijpelinkTerneuzen47.16M50   12.186  4:55
44  Marion GoossenTerneuzen47.52V45   12.033  4:59
45  Cor LeunisTerneuzen48.16M55   11.934  5:02
46  Cor de JongeTerneuzen48.40M55   11.836  5:04
47  Wendy van den BroekeAxel49.02V35   11.747  5:06
48  Frans VerwilligenHulst49.18M60   11.684  5:08
49  Emmanuela BrackeAxel49.37V45   11.609  5:10
50  Jack FolkersmaTerneuzen49.57M45   11.532  5:12
51  Nadia BleyenbergNieuw-Namen50.03Vse   11.508  5:13
52  Johan UijtdehaagTerneuzen50.10M35   11.482  5:14
53  Alex van LeuvenSint Jansteen50.26M55   11.421  5:15
54  Edwin RiemensAxel51.11M50   11.254  5:20
55  Leo HoekmaKoewacht52.44M65   10.923  5:30
56  Wienanda KolbeekTerneuzen53.34Vse   10.753  5:35
57  Ilse NieskensBiervliet54.00V50   10.667  5:38
58  Jan-Willem SlabbekoornHoek55.18M50   10.416  5:46
59  Monique AdriaanseTerneuzen55.34V50   10.366  5:47
60  Stefanie van de VisserHoek55.38V35   10.354  5:48
61  Phyllis FranceschiTerneuzen55.54V40   10.304  5:49
62  Ingrid JonesTerneuzen56.22V45   10.219  5:52
63  Marieke van HeckeTerneuzen56.43V35   10.156  5:54
64  Antoine van den BroekTerneuzen57.02M35   10.099  5:56
65  Chantal SchilperoordtZaamslag57.06V40   10.088  5:57
66  Rudy van de VeldeWachtebeke58.17M50   9.883  6:04
67  Gerald MonteyneOosteeklo58.18M50   9.880  6:04
68  Dominique De MeySint-Niklaas59.02V50   9.757  6:09
69  Philip De VroeSleidinge59.08M50   9.741  6:10
Mannen: 50 (72.46%) => M35=7 - M40=5 - M45=12 - M50=11 - M55=5 - M60=2 - M65=2 - Mse=6
Vrouwen: 19 (27.54%) => V35=4 - V40=4 - V45=3 - V50=4 - Vse=4
5.2 km
PltsNaam
Tijdkm/umin/km
1  Sander d'HontKuitaart16.38Mse   18.758  3:12
2  Robert LafertinTerneuzen19.50M35   15.731  3:49
3  Omar HillaertWestdorpe20.22M45   15.319  3:55
4  Paul HaertjensBoekhoute21.45M50   14.345  4:11
5  Ronald VerschurenTerneuzen21.57M40   14.214  4:13
6  Micha TollenaarTerneuzen22.00Mse   14.182  4:14
7  Jos van GrembergheStekene22.08M60   14.096  4:15
8  Bart de ClerckVogelwaarde23.19Mse   13.381  4:29
9  Wim BakkerTerneuzen23.25M65   13.324  4:30
10  Manon WakkerTerneuzen26.48Vse   11.642  5:09
11  Daan DielemanZaamslag26.53M65   11.606  5:10
12  Johan De ZeeuwAxel28.15M55   11.044  5:26
13  Sheila BaarsAxel28.16V45   11.038  5:26
14  Ilse de ZeeuwTerneuzen28.46V45   10.846  5:32
15  Karin den DekkerTerneuzen29.02V45   10.746  5:35
16  Danielle van der KooiTerneuzen29.03V40   10.740  5:35
17  Carin WillemseTerneuzen29.54V45   10.435  5:45
18  Tally ZamanTerneuzen29.54V50   10.435  5:45
19  Tonny StrijdonkTerneuzen31.12M70   10.000  6:00
20  Danielle XavierTerneuzen31.53V40   9.786  6:08
21  Marjan SuijTerneuzen32.33V50   9.585  6:16
22  Natasja FlorissenTerneuzen34.48V45   8.966  6:42
23  Lidy JonkerTerneuzen37.18V50   8.365  7:10
24  Greta de VijlderSint-Gillis-Waas37.19V70   8.361  7:11
Mannen: 12 (50%) => M35=1 - M40=1 - M45=1 - M50=1 - M55=1 - M60=1 - M65=2 - M70=1 - Mse=3
Vrouwen: 12 (50%) => V40=2 - V45=5 - V50=3 - V70=1 - Vse=1

Overzicht Top3, winnares en aantal deelnemers in eerdere jaren

JaarWinnaarTijd2eTijd 3eTijdWinnaresTijd#
2017Sander d'Hont16:38Robert Lafertin19:50Omar Hillaert20:22Manon Wakker26:4824
2016Sander d'Hont17:04Erwin van de Broeke17:37Ben van Vliet20:37Stefanie van de Visser24:5631
2015Sander d'Hont17:19Gunter D'Hondt17:48Dennis Florussen19:44Fiona Reijers24:2123
2014Gunter D'Hondt17:59Martijn Kox18:52Dennis Florussen19:45Shirley Kerkhove20:3036


Snelheid en tempo zijn berekend op de vermelde afstand. Bij een onjuiste afstand wijken deze uiteraard af!

Fouten melden via info@atletiekzeeland.nl Categorie fout? Mail dan geboortedatum. (geldt alleen voor Zeeuwen)

De server had 0.215 seconden nodig om deze lijst met 93 prestaties samen te stellen.

Terug naar boven

Vorige uitslagen
DatumWedstrijdPlaatsVereniging Hits
31-08-2016 KreekloopTerneuzenScheldesport382
26-08-2015 KreekloopTerneuzenScheldesport489
27-08-2014 KreekloopTerneuzenScheldesport820
26-08-2009 KreekloopTerneuzenScheldesport1535
27-08-2008 KreekloopTerneuzenScheldesport720
29-08-2007 KreekloopTerneuzenScheldesport1141

 
Laatste reactie:
Jan Roose: Gezocht: Gunstige Dag Voor Mar..
Recente Zeeuwse prestaties meer prestaties
19-04: 3000m Meeting Oud-Beijerland (6)
3000 m Tim van den Broeke (PR 8.23.79)8.26.86  Mse
3000 m Yunis Stitan (PR)8.45.42  Mse
3000 m Ronnie Overgaauw (PR 8.30.14)8.57.40  Mse
3000 m Franklin van Anrooij (PR)9.08.43  Mse
3000 m Robert de Graaf (PR)9.41.69  JoB
3000 m Shirin van Anrooij (PR 9.50.09)9.54.76  MeB
15-04: Bergse Monumentenloop Bergen op Zoom (11)
14-04: 9e Wolvenloop Wachtebeke (7)
08-04: 38e Marathon Rotterdam (98)
08-04: Marathon Rome (1)
25-03: Halve marathon Lier (1)
25-03: 13e Venloop (45)
25-03: 10 van Halsteren (13)
18-03: Utrecht Marathon (2)
18-03: 30e Parelloop Brunssum (9)
18-03: 4e Stevensloop Nijmegen (4)
18-03: Scheveningen/Zandvoort strand marathon (3)
11-03: 44e CPC Loop Den Haag (85)
11-03: AttilaRun Tilburg (1)
10-03: Wegwedstrijd Rheine (1)
10-03: Dordtse Biesbosch halve marathon Dordrecht (5)
04-03: 20 van Alphen Alphen a/d Rijn (2)
25-02: Two Rivers Marathon Zaltbommel (6)
24-02: Halve Marathon Maasland (1)
Atletiek Zeeland © 2018